sensor_id;sensor_type;location;lat;lon;timestamp;temperature;humidity
10294;DHT22;5192;50.328;7.610;2023-04-10T00:00:53;4.50;33.50
10294;DHT22;5192;50.328;7.610;2023-04-10T00:03:23;4.50;33.40
10294;DHT22;5192;50.328;7.610;2023-04-10T00:05:50;4.40;31.60
10294;DHT22;5192;50.328;7.610;2023-04-10T00:08:22;4.40;31.60
10294;DHT22;5192;50.328;7.610;2023-04-10T00:10:50;4.30;32.80
10294;DHT22;5192;50.328;7.610;2023-04-10T00:13:16;4.30;32.60
10294;DHT22;5192;50.328;7.610;2023-04-10T00:15:42;4.20;32.80
10294;DHT22;5192;50.328;7.610;2023-04-10T00:18:22;4.20;32.80
10294;DHT22;5192;50.328;7.610;2023-04-10T00:20:50;4.20;33.80
10294;DHT22;5192;50.328;7.610;2023-04-10T00:23:17;4.20;35.00
10294;DHT22;5192;50.328;7.610;2023-04-10T00:25:44;4.10;35.40
10294;DHT22;5192;50.328;7.610;2023-04-10T00:28:12;4.10;35.90
10294;DHT22;5192;50.328;7.610;2023-04-10T00:30:41;3.90;36.90
10294;DHT22;5192;50.328;7.610;2023-04-10T00:33:09;3.90;38.10
10294;DHT22;5192;50.328;7.610;2023-04-10T00:35:36;3.90;38.50
10294;DHT22;5192;50.328;7.610;2023-04-10T00:38:02;3.80;38.70
10294;DHT22;5192;50.328;7.610;2023-04-10T00:40:32;3.80;38.90
10294;DHT22;5192;50.328;7.610;2023-04-10T00:42:59;3.80;38.50
10294;DHT22;5192;50.328;7.610;2023-04-10T00:45:26;3.80;38.80
10294;DHT22;5192;50.328;7.610;2023-04-10T00:47:54;3.80;38.80
10294;DHT22;5192;50.328;7.610;2023-04-10T00:50:23;3.80;39.80
10294;DHT22;5192;50.328;7.610;2023-04-10T00:52:53;3.80;40.50
10294;DHT22;5192;50.328;7.610;2023-04-10T00:55:20;3.70;41.20
10294;DHT22;5192;50.328;7.610;2023-04-10T00:57:46;3.70;41.90
10294;DHT22;5192;50.328;7.610;2023-04-10T01:00:14;3.70;42.40
10294;DHT22;5192;50.328;7.610;2023-04-10T01:02:41;3.70;42.80
10294;DHT22;5192;50.328;7.610;2023-04-10T01:05:11;3.70;43.00
10294;DHT22;5192;50.328;7.610;2023-04-10T01:08:11;3.60;43.40
10294;DHT22;5192;50.328;7.610;2023-04-10T01:10:52;3.60;44.00
10294;DHT22;5192;50.328;7.610;2023-04-10T01:16:37;3.60;44.50
10294;DHT22;5192;50.328;7.610;2023-04-10T01:22:05;3.50;45.40
10294;DHT22;5192;50.328;7.610;2023-04-10T01:25:04;3.40;45.70
10294;DHT22;5192;50.328;7.610;2023-04-10T01:28:08;3.40;46.30
10294;DHT22;5192;50.328;7.610;2023-04-10T01:30:34;3.40;47.00
10294;DHT22;5192;50.328;7.610;2023-04-10T01:33:04;3.40;47.30
10294;DHT22;5192;50.328;7.610;2023-04-10T01:35:37;3.40;47.40
10294;DHT22;5192;50.328;7.610;2023-04-10T01:38:06;3.40;47.50
10294;DHT22;5192;50.328;7.610;2023-04-10T01:40:33;3.40;47.90
10294;DHT22;5192;50.328;7.610;2023-04-10T01:43:06;3.30;47.90
10294;DHT22;5192;50.328;7.610;2023-04-10T01:45:35;3.30;48.70
10294;DHT22;5192;50.328;7.610;2023-04-10T01:48:04;3.30;49.10
10294;DHT22;5192;50.328;7.610;2023-04-10T01:50:32;3.30;49.70
10294;DHT22;5192;50.328;7.610;2023-04-10T01:53:06;3.30;49.50
10294;DHT22;5192;50.328;7.610;2023-04-10T01:55:33;3.30;49.60
10294;DHT22;5192;50.328;7.610;2023-04-10T01:58:02;3.30;49.50
10294;DHT22;5192;50.328;7.610;2023-04-10T02:00:29;3.30;49.90
10294;DHT22;5192;50.328;7.610;2023-04-10T02:02:56;3.20;50.20
10294;DHT22;5192;50.328;7.610;2023-04-10T02:05:28;3.20;50.80
10294;DHT22;5192;50.328;7.610;2023-04-10T02:08:04;3.20;49.90
10294;DHT22;5192;50.328;7.610;2023-04-10T02:13:07;3.20;50.00
10294;DHT22;5192;50.328;7.610;2023-04-10T02:15:37;3.20;50.10
10294;DHT22;5192;50.328;7.610;2023-04-10T02:18:15;3.20;50.10
10294;DHT22;5192;50.328;7.610;2023-04-10T02:20:43;3.20;50.40
10294;DHT22;5192;50.328;7.610;2023-04-10T02:23:11;3.20;50.80
10294;DHT22;5192;50.328;7.610;2023-04-10T02:25:39;3.20;51.10
10294;DHT22;5192;50.328;7.610;2023-04-10T02:28:06;3.20;51.20
10294;DHT22;5192;50.328;7.610;2023-04-10T02:30:32;3.20;51.50
10294;DHT22;5192;50.328;7.610;2023-04-10T02:32:59;3.10;51.80
10294;DHT22;5192;50.328;7.610;2023-04-10T02:35:26;3.10;52.00
10294;DHT22;5192;50.328;7.610;2023-04-10T02:37:55;3.10;52.50
10294;DHT22;5192;50.328;7.610;2023-04-10T02:40:22;3.10;52.90
10294;DHT22;5192;50.328;7.610;2023-04-10T02:42:47;3.10;52.90
10294;DHT22;5192;50.328;7.610;2023-04-10T02:45:14;3.30;53.00
10294;DHT22;5192;50.328;7.610;2023-04-10T02:47:41;3.10;52.80
10294;DHT22;5192;50.328;7.610;2023-04-10T02:50:08;3.10;52.90
10294;DHT22;5192;50.328;7.610;2023-04-10T02:52:35;3.10;53.00
10294;DHT22;5192;50.328;7.610;2023-04-10T02:55:04;3.10;53.20
10294;DHT22;5192;50.328;7.610;2023-04-10T02:57:30;3.10;53.30
10294;DHT22;5192;50.328;7.610;2023-04-10T02:59:57;3.30;52.60
10294;DHT22;5192;50.328;7.610;2023-04-10T03:02:25;3.50;49.70
10294;DHT22;5192;50.328;7.610;2023-04-10T03:04:53;3.60;47.60
10294;DHT22;5192;50.328;7.610;2023-04-10T03:07:22;3.60;47.20
10294;DHT22;5192;50.328;7.610;2023-04-10T03:09:49;3.60;46.60
10294;DHT22;5192;50.328;7.610;2023-04-10T03:12:16;3.60;46.30
10294;DHT22;5192;50.328;7.610;2023-04-10T03:14:44;3.50;45.70
10294;DHT22;5192;50.328;7.610;2023-04-10T03:17:12;3.50;45.60
10294;DHT22;5192;50.328;7.610;2023-04-10T03:19:39;3.50;44.60
10294;DHT22;5192;50.328;7.610;2023-04-10T03:22:06;3.50;44.70
10294;DHT22;5192;50.328;7.610;2023-04-10T03:24:33;3.50;42.90
10294;DHT22;5192;50.328;7.610;2023-04-10T03:27:00;3.50;43.20
10294;DHT22;5192;50.328;7.610;2023-04-10T03:29:29;3.50;44.00
10294;DHT22;5192;50.328;7.610;2023-04-10T03:31:57;3.50;44.60
10294;DHT22;5192;50.328;7.610;2023-04-10T03:34:25;3.50;45.10
10294;DHT22;5192;50.328;7.610;2023-04-10T03:36:50;3.60;42.90
10294;DHT22;5192;50.328;7.610;2023-04-10T03:39:19;3.70;40.80
10294;DHT22;5192;50.328;7.610;2023-04-10T03:41:44;4.00;37.80
10294;DHT22;5192;50.328;7.610;2023-04-10T03:44:12;4.10;35.10
10294;DHT22;5192;50.328;7.610;2023-04-10T03:46:37;4.50;31.40
10294;DHT22;5192;50.328;7.610;2023-04-10T03:49:06;4.70;28.50
10294;DHT22;5192;50.328;7.610;2023-04-10T03:51:33;4.90;27.00
10294;DHT22;5192;50.328;7.610;2023-04-10T03:54:00;5.00;25.90
10294;DHT22;5192;50.328;7.610;2023-04-10T03:56:28;5.00;25.50
10294;DHT22;5192;50.328;7.610;2023-04-10T03:58:57;5.10;25.50
10294;DHT22;5192;50.328;7.610;2023-04-10T04:01:24;5.10;25.00
10294;DHT22;5192;50.328;7.610;2023-04-10T04:03:52;5.20;24.00
10294;DHT22;5192;50.328;7.610;2023-04-10T04:06:20;5.30;23.00
10294;DHT22;5192;50.328;7.610;2023-04-10T04:08:47;5.30;22.10
10294;DHT22;5192;50.328;7.610;2023-04-10T04:11:14;5.40;21.50
10294;DHT22;5192;50.328;7.610;2023-04-10T04:13:41;5.40;21.20
10294;DHT22;5192;50.328;7.610;2023-04-10T04:16:09;5.40;21.00
10294;DHT22;5192;50.328;7.610;2023-04-10T04:18:36;5.40;20.40
10294;DHT22;5192;50.328;7.610;2023-04-10T04:21:05;5.60;20.60
10294;DHT22;5192;50.328;7.610;2023-04-10T04:23:33;5.40;20.20
10294;DHT22;5192;50.328;7.610;2023-04-10T04:26:01;5.40;21.40
10294;DHT22;5192;50.328;7.610;2023-04-10T04:28:29;5.30;21.50
10294;DHT22;5192;50.328;7.610;2023-04-10T04:30:56;5.30;21.60
10294;DHT22;5192;50.328;7.610;2023-04-10T04:33:23;5.30;22.20
10294;DHT22;5192;50.328;7.610;2023-04-10T04:35:51;5.20;22.30
10294;DHT22;5192;50.328;7.610;2023-04-10T04:38:18;5.10;22.40
10294;DHT22;5192;50.328;7.610;2023-04-10T04:40:46;5.10;23.10
10294;DHT22;5192;50.328;7.610;2023-04-10T04:43:14;5.00;24.00
10294;DHT22;5192;50.328;7.610;2023-04-10T04:45:42;4.90;24.80
10294;DHT22;5192;50.328;7.610;2023-04-10T04:48:09;4.90;23.00
10294;DHT22;5192;50.328;7.610;2023-04-10T04:50:38;5.00;22.00
10294;DHT22;5192;50.328;7.610;2023-04-10T04:53:07;5.20;19.90
10294;DHT22;5192;50.328;7.610;2023-04-10T04:55:33;5.30;18.70
10294;DHT22;5192;50.328;7.610;2023-04-10T04:58:01;5.50;17.60
10294;DHT22;5192;50.328;7.610;2023-04-10T05:00:28;5.60;15.40
10294;DHT22;5192;50.328;7.610;2023-04-10T05:02:55;5.60;14.40
10294;DHT22;5192;50.328;7.610;2023-04-10T05:05:22;5.70;14.90
10294;DHT22;5192;50.328;7.610;2023-04-10T05:07:49;5.70;14.40
10294;DHT22;5192;50.328;7.610;2023-04-10T05:10:15;5.80;14.90
10294;DHT22;5192;50.328;7.610;2023-04-10T05:12:41;5.80;13.30
10294;DHT22;5192;50.328;7.610;2023-04-10T05:15:09;5.90;13.20
10294;DHT22;5192;50.328;7.610;2023-04-10T05:17:36;6.00;13.20
10294;DHT22;5192;50.328;7.610;2023-04-10T05:20:03;6.00;12.20
10294;DHT22;5192;50.328;7.610;2023-04-10T05:22:32;6.10;11.10
10294;DHT22;5192;50.328;7.610;2023-04-10T05:24:58;6.10;11.00
10294;DHT22;5192;50.328;7.610;2023-04-10T05:27:25;6.20;9.50
10294;DHT22;5192;50.328;7.610;2023-04-10T05:29:52;6.30;9.90
10294;DHT22;5192;50.328;7.610;2023-04-10T05:32:19;6.30;9.20
10294;DHT22;5192;50.328;7.610;2023-04-10T05:34:46;6.30;9.90
10294;DHT22;5192;50.328;7.610;2023-04-10T05:37:14;6.30;9.50
10294;DHT22;5192;50.328;7.610;2023-04-10T05:39:41;6.30;9.00
10294;DHT22;5192;50.328;7.610;2023-04-10T05:42:08;6.30;9.60
10294;DHT22;5192;50.328;7.610;2023-04-10T05:44:35;6.30;8.70
10294;DHT22;5192;50.328;7.610;2023-04-10T05:47:03;6.40;9.00
10294;DHT22;5192;50.328;7.610;2023-04-10T05:49:32;6.30;9.00
10294;DHT22;5192;50.328;7.610;2023-04-10T05:51:59;6.30;9.40
10294;DHT22;5192;50.328;7.610;2023-04-10T05:54:25;6.30;10.40
10294;DHT22;5192;50.328;7.610;2023-04-10T05:56:51;6.30;10.20
10294;DHT22;5192;50.328;7.610;2023-04-10T05:59:18;6.20;10.40
10294;DHT22;5192;50.328;7.610;2023-04-10T06:01:45;6.20;12.70
10294;DHT22;5192;50.328;7.610;2023-04-10T06:04:12;6.20;12.60
10294;DHT22;5192;50.328;7.610;2023-04-10T06:06:39;6.20;10.70
10294;DHT22;5192;50.328;7.610;2023-04-10T06:09:07;6.20;10.90
10294;DHT22;5192;50.328;7.610;2023-04-10T06:11:34;6.30;11.30
10294;DHT22;5192;50.328;7.610;2023-04-10T06:14:03;6.30;12.00
10294;DHT22;5192;50.328;7.610;2023-04-10T06:16:30;6.40;11.50
10294;DHT22;5192;50.328;7.610;2023-04-10T06:18:59;6.40;10.80
10294;DHT22;5192;50.328;7.610;2023-04-10T06:21:26;6.50;11.00
10294;DHT22;5192;50.328;7.610;2023-04-10T06:23:54;6.50;10.40
10294;DHT22;5192;50.328;7.610;2023-04-10T06:26:23;6.50;11.20
10294;DHT22;5192;50.328;7.610;2023-04-10T06:28:54;6.60;9.70
10294;DHT22;5192;50.328;7.610;2023-04-10T06:31:26;6.60;9.60
10294;DHT22;5192;50.328;7.610;2023-04-10T06:33:55;6.70;9.20
10294;DHT22;5192;50.328;7.610;2023-04-10T06:36:21;6.70;9.60
10294;DHT22;5192;50.328;7.610;2023-04-10T06:38:49;6.70;9.50
10294;DHT22;5192;50.328;7.610;2023-04-10T06:41:16;6.80;8.80
10294;DHT22;5192;50.328;7.610;2023-04-10T06:43:44;6.80;8.50
10294;DHT22;5192;50.328;7.610;2023-04-10T06:46:11;6.80;9.00
10294;DHT22;5192;50.328;7.610;2023-04-10T06:48:37;6.90;9.90
10294;DHT22;5192;50.328;7.610;2023-04-10T06:51:03;7.00;8.20
10294;DHT22;5192;50.328;7.610;2023-04-10T06:53:30;7.00;8.10
10294;DHT22;5192;50.328;7.610;2023-04-10T06:55:58;7.00;8.00
10294;DHT22;5192;50.328;7.610;2023-04-10T06:58:24;7.10;9.30
10294;DHT22;5192;50.328;7.610;2023-04-10T07:00:53;7.20;8.40
10294;DHT22;5192;50.328;7.610;2023-04-10T07:03:21;7.20;8.40
10294;DHT22;5192;50.328;7.610;2023-04-10T07:05:48;7.30;6.30
10294;DHT22;5192;50.328;7.610;2023-04-10T07:08:15;7.30;6.90
10294;DHT22;5192;50.328;7.610;2023-04-10T07:10:42;7.40;8.00
10294;DHT22;5192;50.328;7.610;2023-04-10T07:13:09;7.50;6.40
10294;DHT22;5192;50.328;7.610;2023-04-10T07:15:35;7.60;5.70
10294;DHT22;5192;50.328;7.610;2023-04-10T07:18:01;7.60;5.60
10294;DHT22;5192;50.328;7.610;2023-04-10T07:20:28;7.70;5.20
10294;DHT22;5192;50.328;7.610;2023-04-10T07:22:55;7.80;5.00
10294;DHT22;5192;50.328;7.610;2023-04-10T07:25:23;7.90;3.50
10294;DHT22;5192;50.328;7.610;2023-04-10T07:27:50;8.10;3.00
10294;DHT22;5192;50.328;7.610;2023-04-10T07:30:18;8.30;1.60
10294;DHT22;5192;50.328;7.610;2023-04-10T07:32:45;8.40;1.00
10294;DHT22;5192;50.328;7.610;2023-04-10T07:35:13;8.50;1.00
10294;DHT22;5192;50.328;7.610;2023-04-10T07:37:41;8.70;1.00
10294;DHT22;5192;50.328;7.610;2023-04-10T07:40:11;8.80;1.00
10294;DHT22;5192;50.328;7.610;2023-04-10T07:42:39;8.90;1.00
10294;DHT22;5192;50.328;7.610;2023-04-10T07:45:08;9.10;1.00
10294;DHT22;5192;50.328;7.610;2023-04-10T07:47:34;9.30;1.00
10294;DHT22;5192;50.328;7.610;2023-04-10T07:50:02;9.30;1.00
10294;DHT22;5192;50.328;7.610;2023-04-10T07:52:30;9.50;1.00
10294;DHT22;5192;50.328;7.610;2023-04-10T07:55:00;9.60;1.00
10294;DHT22;5192;50.328;7.610;2023-04-10T07:57:28;9.70;1.00
10294;DHT22;5192;50.328;7.610;2023-04-10T07:59:55;9.90;1.00
10294;DHT22;5192;50.328;7.610;2023-04-10T08:02:23;10.00;1.00
10294;DHT22;5192;50.328;7.610;2023-04-10T08:04:53;10.10;1.00
10294;DHT22;5192;50.328;7.610;2023-04-10T08:07:20;10.20;1.00
10294;DHT22;5192;50.328;7.610;2023-04-10T08:09:48;10.40;1.00
10294;DHT22;5192;50.328;7.610;2023-04-10T08:12:15;10.50;1.00
10294;DHT22;5192;50.328;7.610;2023-04-10T08:14:43;10.70;1.00
10294;DHT22;5192;50.328;7.610;2023-04-10T08:17:11;10.90;1.00
10294;DHT22;5192;50.328;7.610;2023-04-10T08:19:43;11.00;1.00
10294;DHT22;5192;50.328;7.610;2023-04-10T08:22:10;11.30;1.00
10294;DHT22;5192;50.328;7.610;2023-04-10T08:24:37;11.30;1.00
10294;DHT22;5192;50.328;7.610;2023-04-10T08:27:05;11.40;1.00
10294;DHT22;5192;50.328;7.610;2023-04-10T08:29:33;11.50;1.00
10294;DHT22;5192;50.328;7.610;2023-04-10T08:31:59;11.60;1.00
10294;DHT22;5192;50.328;7.610;2023-04-10T08:34:27;11.60;1.00
10294;DHT22;5192;50.328;7.610;2023-04-10T08:36:56;11.70;1.00
10294;DHT22;5192;50.328;7.610;2023-04-10T08:39:21;11.80;1.00
10294;DHT22;5192;50.328;7.610;2023-04-10T08:41:49;11.70;1.00
10294;DHT22;5192;50.328;7.610;2023-04-10T08:44:17;11.70;1.00
10294;DHT22;5192;50.328;7.610;2023-04-10T08:46:45;11.80;1.00
10294;DHT22;5192;50.328;7.610;2023-04-10T08:52:24;11.80;1.00
10294;DHT22;5192;50.328;7.610;2023-04-10T08:54:55;11.90;1.00
10294;DHT22;5192;50.328;7.610;2023-04-10T08:57:25;12.00;1.00
10294;DHT22;5192;50.328;7.610;2023-04-10T08:59:53;11.90;1.00
10294;DHT22;5192;50.328;7.610;2023-04-10T09:02:22;12.00;1.00
10294;DHT22;5192;50.328;7.610;2023-04-10T09:04:58;12.00;1.00
10294;DHT22;5192;50.328;7.610;2023-04-10T09:07:27;12.10;1.00
10294;DHT22;5192;50.328;7.610;2023-04-10T09:09:55;12.10;1.00
10294;DHT22;5192;50.328;7.610;2023-04-10T09:12:20;12.30;1.00
10294;DHT22;5192;50.328;7.610;2023-04-10T09:14:47;12.30;1.00
10294;DHT22;5192;50.328;7.610;2023-04-10T09:17:36;12.40;1.00
10294;DHT22;5192;50.328;7.610;2023-04-10T09:20:19;12.50;1.00
10294;DHT22;5192;50.328;7.610;2023-04-10T09:22:49;12.70;1.00
10294;DHT22;5192;50.328;7.610;2023-04-10T09:28:02;12.90;1.00
10294;DHT22;5192;50.328;7.610;2023-04-10T09:30:41;12.90;1.00
10294;DHT22;5192;50.328;7.610;2023-04-10T09:33:27;13.10;1.00
10294;DHT22;5192;50.328;7.610;2023-04-10T09:35:58;13.20;1.00
10294;DHT22;5192;50.328;7.610;2023-04-10T09:38:29;13.40;1.00
10294;DHT22;5192;50.328;7.610;2023-04-10T09:41:06;13.50;1.00
10294;DHT22;5192;50.328;7.610;2023-04-10T09:43:33;13.60;1.00
10294;DHT22;5192;50.328;7.610;2023-04-10T09:45:59;13.80;1.00
10294;DHT22;5192;50.328;7.610;2023-04-10T09:48:26;13.80;1.00
10294;DHT22;5192;50.328;7.610;2023-04-10T09:50:52;13.80;1.00
10294;DHT22;5192;50.328;7.610;2023-04-10T09:53:20;14.00;1.00
10294;DHT22;5192;50.328;7.610;2023-04-10T09:55:48;14.10;1.00
10294;DHT22;5192;50.328;7.610;2023-04-10T09:58:15;14.20;1.00
10294;DHT22;5192;50.328;7.610;2023-04-10T10:01:00;14.30;1.00
10294;DHT22;5192;50.328;7.610;2023-04-10T10:03:27;14.40;1.00
10294;DHT22;5192;50.328;7.610;2023-04-10T10:05:54;14.50;1.00
10294;DHT22;5192;50.328;7.610;2023-04-10T10:08:23;14.60;1.00
10294;DHT22;5192;50.328;7.610;2023-04-10T10:10:53;14.70;1.00
10294;DHT22;5192;50.328;7.610;2023-04-10T10:13:30;14.60;1.00
10294;DHT22;5192;50.328;7.610;2023-04-10T10:16:10;14.70;1.00
10294;DHT22;5192;50.328;7.610;2023-04-10T10:18:55;15.00;1.00
10294;DHT22;5192;50.328;7.610;2023-04-10T10:21:23;15.10;1.00
10294;DHT22;5192;50.328;7.610;2023-04-10T10:24:00;15.10;1.00
10294;DHT22;5192;50.328;7.610;2023-04-10T10:26:32;15.00;1.00
10294;DHT22;5192;50.328;7.610;2023-04-10T10:29:05;15.00;1.00
10294;DHT22;5192;50.328;7.610;2023-04-10T10:31:36;15.00;1.00
10294;DHT22;5192;50.328;7.610;2023-04-10T10:34:05;15.10;1.00
10294;DHT22;5192;50.328;7.610;2023-04-10T10:36:35;15.00;1.00
10294;DHT22;5192;50.328;7.610;2023-04-10T10:47:51;15.10;1.00
10294;DHT22;5192;50.328;7.610;2023-04-10T10:50:18;15.10;1.00
10294;DHT22;5192;50.328;7.610;2023-04-10T10:52:46;15.20;1.00
10294;DHT22;5192;50.328;7.610;2023-04-10T10:58:13;15.60;1.00
10294;DHT22;5192;50.328;7.610;2023-04-10T11:06:19;15.80;1.00
10294;DHT22;5192;50.328;7.610;2023-04-10T11:08:53;15.80;1.00
10294;DHT22;5192;50.328;7.610;2023-04-10T11:11:22;16.00;1.00
10294;DHT22;5192;50.328;7.610;2023-04-10T11:16:23;15.80;1.00
10294;DHT22;5192;50.328;7.610;2023-04-10T11:19:26;15.90;1.00
10294;DHT22;5192;50.328;7.610;2023-04-10T11:22:06;16.50;1.00
10294;DHT22;5192;50.328;7.610;2023-04-10T11:24:55;16.50;1.00
10294;DHT22;5192;50.328;7.610;2023-04-10T11:30:30;16.60;1.00
10294;DHT22;5192;50.328;7.610;2023-04-10T11:33:01;16.40;1.00
10294;DHT22;5192;50.328;7.610;2023-04-10T11:35:28;16.60;1.00
10294;DHT22;5192;50.328;7.610;2023-04-10T11:38:15;16.70;1.00
10294;DHT22;5192;50.328;7.610;2023-04-10T11:41:02;17.00;1.00
10294;DHT22;5192;50.328;7.610;2023-04-10T11:43:31;16.90;1.00
10294;DHT22;5192;50.328;7.610;2023-04-10T11:46:03;16.80;1.00
10294;DHT22;5192;50.328;7.610;2023-04-10T11:48:31;16.90;1.00
10294;DHT22;5192;50.328;7.610;2023-04-10T11:51:05;17.20;1.00
10294;DHT22;5192;50.328;7.610;2023-04-10T11:53:33;17.10;1.00
10294;DHT22;5192;50.328;7.610;2023-04-10T11:56:01;17.10;1.00
10294;DHT22;5192;50.328;7.610;2023-04-10T11:58:29;17.30;1.00
10294;DHT22;5192;50.328;7.610;2023-04-10T12:01:14;17.30;1.00
10294;DHT22;5192;50.328;7.610;2023-04-10T12:03:45;17.20;1.00
10294;DHT22;5192;50.328;7.610;2023-04-10T12:06:13;17.40;1.00
10294;DHT22;5192;50.328;7.610;2023-04-10T12:08:42;17.60;1.00
10294;DHT22;5192;50.328;7.610;2023-04-10T12:11:27;17.50;1.00
10294;DHT22;5192;50.328;7.610;2023-04-10T12:13:56;17.60;1.00
10294;DHT22;5192;50.328;7.610;2023-04-10T12:16:23;17.60;1.00
10294;DHT22;5192;50.328;7.610;2023-04-10T12:18:53;17.70;1.00
10294;DHT22;5192;50.328;7.610;2023-04-10T12:21:20;17.80;1.00
10294;DHT22;5192;50.328;7.610;2023-04-10T12:23:47;17.80;1.00
10294;DHT22;5192;50.328;7.610;2023-04-10T12:26:31;17.90;1.00
10294;DHT22;5192;50.328;7.610;2023-04-10T12:28:58;17.80;1.00
10294;DHT22;5192;50.328;7.610;2023-04-10T12:31:36;17.60;1.00
10294;DHT22;5192;50.328;7.610;2023-04-10T12:34:05;17.80;1.00
10294;DHT22;5192;50.328;7.610;2023-04-10T12:36:31;17.50;1.00
10294;DHT22;5192;50.328;7.610;2023-04-10T12:39:24;17.30;1.00
10294;DHT22;5192;50.328;7.610;2023-04-10T12:42:08;17.50;1.00
10294;DHT22;5192;50.328;7.610;2023-04-10T12:44:50;17.40;1.00
10294;DHT22;5192;50.328;7.610;2023-04-10T12:47:16;17.50;1.00
10294;DHT22;5192;50.328;7.610;2023-04-10T12:50:02;17.50;1.00
10294;DHT22;5192;50.328;7.610;2023-04-10T12:52:30;17.50;1.00
10294;DHT22;5192;50.328;7.610;2023-04-10T12:55:16;17.60;1.00
10294;DHT22;5192;50.328;7.610;2023-04-10T12:57:45;17.70;1.00
10294;DHT22;5192;50.328;7.610;2023-04-10T13:00:17;18.00;1.00
10294;DHT22;5192;50.328;7.610;2023-04-10T13:02:45;18.00;1.00
10294;DHT22;5192;50.328;7.610;2023-04-10T13:05:13;18.20;1.00
10294;DHT22;5192;50.328;7.610;2023-04-10T13:07:41;18.40;1.00
10294;DHT22;5192;50.328;7.610;2023-04-10T13:10:09;18.50;1.00
10294;DHT22;5192;50.328;7.610;2023-04-10T13:12:36;18.10;1.00
10294;DHT22;5192;50.328;7.610;2023-04-10T13:15:07;18.60;1.00
10294;DHT22;5192;50.328;7.610;2023-04-10T13:17:34;18.70;1.00
10294;DHT22;5192;50.328;7.610;2023-04-10T13:20:01;18.60;1.00
10294;DHT22;5192;50.328;7.610;2023-04-10T13:22:30;18.90;1.00
10294;DHT22;5192;50.328;7.610;2023-04-10T13:24:57;18.80;1.00
10294;DHT22;5192;50.328;7.610;2023-04-10T13:27:24;18.90;1.00
10294;DHT22;5192;50.328;7.610;2023-04-10T13:29:52;18.80;1.00
10294;DHT22;5192;50.328;7.610;2023-04-10T13:32:20;18.80;1.00
10294;DHT22;5192;50.328;7.610;2023-04-10T13:34:47;19.00;1.00
10294;DHT22;5192;50.328;7.610;2023-04-10T13:37:14;19.40;1.00
10294;DHT22;5192;50.328;7.610;2023-04-10T13:39:42;19.70;1.00
10294;DHT22;5192;50.328;7.610;2023-04-10T13:42:09;20.20;1.00
10294;DHT22;5192;50.328;7.610;2023-04-10T13:44:35;20.20;1.00
10294;DHT22;5192;50.328;7.610;2023-04-10T13:47:03;19.90;1.00
10294;DHT22;5192;50.328;7.610;2023-04-10T13:49:28;19.90;1.00
10294;DHT22;5192;50.328;7.610;2023-04-10T13:51:58;19.80;1.00
10294;DHT22;5192;50.328;7.610;2023-04-10T13:54:25;19.60;1.00
10294;DHT22;5192;50.328;7.610;2023-04-10T13:56:52;19.50;1.00
10294;DHT22;5192;50.328;7.610;2023-04-10T13:59:20;19.40;1.00
10294;DHT22;5192;50.328;7.610;2023-04-10T14:01:48;19.40;1.00
10294;DHT22;5192;50.328;7.610;2023-04-10T14:04:19;19.20;1.00
10294;DHT22;5192;50.328;7.610;2023-04-10T14:06:47;19.20;1.00
10294;DHT22;5192;50.328;7.610;2023-04-10T14:09:14;19.50;1.00
10294;DHT22;5192;50.328;7.610;2023-04-10T14:11:42;19.80;1.00
10294;DHT22;5192;50.328;7.610;2023-04-10T14:14:09;19.60;1.00
10294;DHT22;5192;50.328;7.610;2023-04-10T14:16:36;19.60;1.00
10294;DHT22;5192;50.328;7.610;2023-04-10T14:19:07;19.60;1.00
10294;DHT22;5192;50.328;7.610;2023-04-10T14:21:33;19.50;1.00
10294;DHT22;5192;50.328;7.610;2023-04-10T14:24:00;19.30;1.00
10294;DHT22;5192;50.328;7.610;2023-04-10T14:26:27;19.20;1.00
10294;DHT22;5192;50.328;7.610;2023-04-10T14:28:54;19.20;1.00
10294;DHT22;5192;50.328;7.610;2023-04-10T14:31:21;19.20;1.00
10294;DHT22;5192;50.328;7.610;2023-04-10T14:33:46;19.20;1.00
10294;DHT22;5192;50.328;7.610;2023-04-10T14:36:15;19.30;1.00
10294;DHT22;5192;50.328;7.610;2023-04-10T14:38:41;19.60;1.00
10294;DHT22;5192;50.328;7.610;2023-04-10T14:41:08;19.90;1.00
10294;DHT22;5192;50.328;7.610;2023-04-10T14:43:35;20.10;1.00
10294;DHT22;5192;50.328;7.610;2023-04-10T14:46:05;20.00;1.00
10294;DHT22;5192;50.328;7.610;2023-04-10T14:48:32;20.10;1.00
10294;DHT22;5192;50.328;7.610;2023-04-10T14:51:00;20.10;1.00
10294;DHT22;5192;50.328;7.610;2023-04-10T14:53:27;20.00;1.00
10294;DHT22;5192;50.328;7.610;2023-04-10T14:55:57;19.80;1.00
10294;DHT22;5192;50.328;7.610;2023-04-10T14:58:25;19.50;1.00
10294;DHT22;5192;50.328;7.610;2023-04-10T15:00:53;19.20;1.00
10294;DHT22;5192;50.328;7.610;2023-04-10T15:03:18;18.90;1.00
10294;DHT22;5192;50.328;7.610;2023-04-10T15:05:45;18.80;1.00
10294;DHT22;5192;50.328;7.610;2023-04-10T15:08:11;18.80;1.00
10294;DHT22;5192;50.328;7.610;2023-04-10T15:10:40;18.80;1.00
10294;DHT22;5192;50.328;7.610;2023-04-10T15:13:07;18.60;1.00
10294;DHT22;5192;50.328;7.610;2023-04-10T15:15:34;18.50;1.00
10294;DHT22;5192;50.328;7.610;2023-04-10T15:18:04;18.40;1.00
10294;DHT22;5192;50.328;7.610;2023-04-10T15:20:29;18.30;1.00
10294;DHT22;5192;50.328;7.610;2023-04-10T15:22:58;18.40;1.00
10294;DHT22;5192;50.328;7.610;2023-04-10T15:25:30;18.30;1.00
10294;DHT22;5192;50.328;7.610;2023-04-10T15:28:00;18.20;1.00
10294;DHT22;5192;50.328;7.610;2023-04-10T15:30:28;18.00;1.00
10294;DHT22;5192;50.328;7.610;2023-04-10T15:32:55;18.00;1.00
10294;DHT22;5192;50.328;7.610;2023-04-10T15:35:21;18.00;1.00
10294;DHT22;5192;50.328;7.610;2023-04-10T15:37:51;18.00;1.00
10294;DHT22;5192;50.328;7.610;2023-04-10T15:40:16;18.10;1.00
10294;DHT22;5192;50.328;7.610;2023-04-10T15:42:44;18.10;1.00
10294;DHT22;5192;50.328;7.610;2023-04-10T15:45:13;18.10;1.00
10294;DHT22;5192;50.328;7.610;2023-04-10T15:47:40;17.90;1.00
10294;DHT22;5192;50.328;7.610;2023-04-10T15:50:08;17.80;1.00
10294;DHT22;5192;50.328;7.610;2023-04-10T15:52:34;17.60;1.00
10294;DHT22;5192;50.328;7.610;2023-04-10T15:55:01;17.60;1.00
10294;DHT22;5192;50.328;7.610;2023-04-10T15:57:28;17.60;1.00
10294;DHT22;5192;50.328;7.610;2023-04-10T15:59:55;17.50;1.00
10294;DHT22;5192;50.328;7.610;2023-04-10T16:02:22;17.30;1.00
10294;DHT22;5192;50.328;7.610;2023-04-10T16:04:49;17.30;1.00
10294;DHT22;5192;50.328;7.610;2023-04-10T16:07:16;17.20;1.00
10294;DHT22;5192;50.328;7.610;2023-04-10T16:09:45;17.20;1.00
10294;DHT22;5192;50.328;7.610;2023-04-10T16:12:13;17.10;1.00
10294;DHT22;5192;50.328;7.610;2023-04-10T16:14:40;17.10;1.00
10294;DHT22;5192;50.328;7.610;2023-04-10T16:17:08;17.10;1.00
10294;DHT22;5192;50.328;7.610;2023-04-10T16:19:36;17.00;1.00
10294;DHT22;5192;50.328;7.610;2023-04-10T16:22:03;17.00;1.00
10294;DHT22;5192;50.328;7.610;2023-04-10T16:24:29;17.00;1.00
10294;DHT22;5192;50.328;7.610;2023-04-10T16:26:57;17.00;1.00
10294;DHT22;5192;50.328;7.610;2023-04-10T16:29:25;16.90;1.00
10294;DHT22;5192;50.328;7.610;2023-04-10T16:31:52;16.90;1.00
10294;DHT22;5192;50.328;7.610;2023-04-10T16:34:19;16.80;1.00
10294;DHT22;5192;50.328;7.610;2023-04-10T16:36:47;16.80;1.00
10294;DHT22;5192;50.328;7.610;2023-04-10T16:39:14;16.80;1.00
10294;DHT22;5192;50.328;7.610;2023-04-10T16:41:42;16.70;1.00
10294;DHT22;5192;50.328;7.610;2023-04-10T16:44:10;16.70;1.00
10294;DHT22;5192;50.328;7.610;2023-04-10T16:46:37;16.70;1.00
10294;DHT22;5192;50.328;7.610;2023-04-10T16:49:07;16.70;1.00
10294;DHT22;5192;50.328;7.610;2023-04-10T16:51:35;16.60;1.00
10294;DHT22;5192;50.328;7.610;2023-04-10T16:54:02;16.70;1.00